createdAt,value
2023-05-13T00:01:20.902Z,100473.19
2023-05-13T00:03:51.738Z,100469.81
2023-05-13T00:06:22.159Z,100465.53
2023-05-13T00:08:52.762Z,100467.09
2023-05-13T00:11:23.311Z,100465.16
2023-05-13T00:13:53.816Z,100465.16
2023-05-13T00:16:25.945Z,100468.53
2023-05-13T00:18:57.479Z,100471.16
2023-05-13T00:21:27.760Z,100464.09
2023-05-13T00:23:58.655Z,100462.31
2023-05-13T00:26:29.052Z,100459.66
2023-05-13T00:28:59.547Z,100458.72
2023-05-13T00:31:30.153Z,100457.75
2023-05-13T00:34:00.706Z,100457.75
2023-05-13T00:36:31.392Z,100453.31
2023-05-13T00:39:01.860Z,100455.84
2023-05-13T00:41:50.192Z,100455.84
2023-05-13T00:44:20.883Z,100453.22
2023-05-13T00:46:52.497Z,100448.88
2023-05-13T00:49:23.382Z,100454.88
2023-05-13T00:51:56.650Z,100441.72
2023-05-13T00:54:27.057Z,100435.38
2023-05-13T00:56:58.464Z,100437.06
2023-05-13T00:59:32.605Z,100444.97
2023-05-13T01:02:20.204Z,100433.63
2023-05-13T01:05:22.009Z,100435.50
2023-05-13T01:08:06.107Z,100429.53
2023-05-13T01:10:51.207Z,100426.09
2023-05-13T01:13:26.723Z,100419.13
2023-05-13T01:16:17.072Z,100420.94
2023-05-13T01:18:59.505Z,100412.22
2023-05-13T01:21:31.177Z,100413.16
2023-05-13T01:24:01.621Z,100408.03
2023-05-13T01:26:32.132Z,100410.69
2023-05-13T01:29:02.907Z,100402.06
2023-05-13T01:31:34.144Z,100409.94
2023-05-13T01:34:07.816Z,100411.59
2023-05-13T01:36:39.054Z,100416.03
2023-05-13T01:39:10.951Z,100409.94
2023-05-13T01:41:41.498Z,100403.84
2023-05-13T01:44:12.037Z,100394.28
2023-05-13T01:46:44.789Z,100389.88
2023-05-13T01:49:15.808Z,100376.03
2023-05-13T01:51:47.966Z,100373.41
2023-05-13T01:54:18.394Z,100371.69
2023-05-13T01:56:54.520Z,100361.19
2023-05-13T01:59:25.015Z,100357.72
2023-05-13T02:01:56.318Z,100357.72
2023-05-13T02:04:29.640Z,100346.38
2023-05-13T02:07:01.211Z,100344.72
2023-05-13T02:09:34.144Z,100344.72
2023-05-13T02:12:04.868Z,100332.41
2023-05-13T02:14:53.305Z,100334.06
2023-05-13T02:17:24.407Z,100331.44
2023-05-13T02:19:55.884Z,100342.91
2023-05-13T02:22:26.568Z,100329.75
2023-05-13T02:24:57.090Z,100325.34
2023-05-13T02:27:27.783Z,100322.72
2023-05-13T02:29:58.326Z,100324.50
2023-05-13T02:32:29.017Z,100320.22
2023-05-13T02:34:59.629Z,100319.38
2023-05-13T02:37:30.047Z,100313.28
2023-05-13T02:40:05.139Z,100306.22
2023-05-13T02:42:35.632Z,100305.41
2023-05-13T02:45:06.314Z,100296.66
2023-05-13T02:47:39.231Z,100298.44
2023-05-13T02:50:11.718Z,100287.84
2023-05-13T02:52:43.222Z,100284.22
2023-05-13T02:55:13.701Z,100282.31
2023-05-13T02:57:45.740Z,100267.50
2023-05-13T03:00:16.991Z,100271.09
2023-05-13T03:02:47.484Z,100267.50
2023-05-13T03:05:18.054Z,100262.22
2023-05-13T03:07:49.237Z,100262.00
2023-05-13T03:10:19.973Z,100260.19
2023-05-13T03:12:50.479Z,100250.66
2023-05-13T03:15:22.185Z,100254.09
2023-05-13T03:18:10.648Z,100251.47
2023-05-13T03:20:41.152Z,100243.47
2023-05-13T03:23:11.631Z,100239.84
2023-05-13T03:25:42.273Z,100233.66
2023-05-13T03:28:12.784Z,100227.44
2023-05-13T03:30:46.237Z,100228.13
2023-05-13T03:33:20.750Z,100216.66
2023-05-13T03:35:51.480Z,100209.59
2023-05-13T03:38:27.454Z,100209.59
2023-05-13T03:40:58.067Z,100205.06
2023-05-13T03:43:28.970Z,100200.63
2023-05-13T03:46:04.162Z,100190.94
2023-05-13T03:48:34.659Z,100180.41
2023-05-13T03:51:05.866Z,100186.41
2023-05-13T03:53:36.548Z,100189.84
2023-05-13T03:56:07.543Z,100177.53
2023-05-13T03:58:55.980Z,100175.75
2023-05-13T04:01:27.315Z,100178.22
2023-05-13T04:03:57.856Z,100174.63
2023-05-13T04:06:28.253Z,100174.63
2023-05-13T04:08:58.618Z,100161.47
2023-05-13T04:11:29.289Z,100162.31
2023-05-13T04:14:00.254Z,100156.13
2023-05-13T04:16:49.068Z,100155.97
2023-05-13T04:19:19.621Z,100152.38
2023-05-13T04:21:50.194Z,100147.94
2023-05-13T04:24:20.562Z,100145.31
2023-05-13T04:26:52.112Z,100147.84
2023-05-13T04:29:22.363Z,100148.66
2023-05-13T04:31:53.675Z,100146.03
2023-05-13T04:34:24.280Z,100140.63
2023-05-13T04:36:55.325Z,100130.84
2023-05-13T04:39:25.771Z,100133.47
2023-05-13T04:41:56.030Z,100135.97
2023-05-13T04:44:26.861Z,100126.25
2023-05-13T04:46:57.281Z,100122.66
2023-05-13T04:49:27.956Z,100118.22
2023-05-13T04:51:59.082Z,100115.50
2023-05-13T04:54:29.696Z,100112.84
2023-05-13T04:57:00.203Z,100112.72
2023-05-13T04:59:30.813Z,100106.47
2023-05-13T05:02:01.260Z,100103.72
2023-05-13T05:04:31.889Z,100101.09
2023-05-13T05:07:02.654Z,100097.50
2023-05-13T05:09:33.091Z,100091.28
2023-05-13T05:12:03.509Z,100084.22
2023-05-13T05:14:35.974Z,100083.25
2023-05-13T05:17:06.622Z,100089.34
2023-05-13T05:19:37.144Z,100082.28
2023-05-13T05:22:08.211Z,100086.44
2023-05-13T05:24:38.830Z,100059.31
2023-05-13T05:27:09.192Z,100063.59
2023-05-13T05:29:39.684Z,100061.81
2023-05-13T05:32:10.543Z,100055.56
2023-05-13T05:34:41.636Z,100045.88
2023-05-13T05:37:12.626Z,100052.00
2023-05-13T05:39:44.445Z,100053.69
2023-05-13T05:42:15.420Z,100050.06
2023-05-13T05:44:46.064Z,100054.38
2023-05-13T05:47:16.631Z,100046.47
2023-05-13T05:49:47.897Z,100042.03
2023-05-13T05:52:19.055Z,100042.88
2023-05-13T05:54:49.737Z,100045.38
2023-05-13T05:57:20.626Z,100048.84
2023-05-13T05:59:51.482Z,100040.94
2023-05-13T06:02:21.935Z,100034.72
2023-05-13T06:04:54.630Z,100039.00
2023-05-13T06:07:25.087Z,100030.28
2023-05-13T06:09:55.825Z,100030.13
2023-05-13T06:12:26.512Z,100027.50
2023-05-13T06:14:57.261Z,100025.72
2023-05-13T06:17:28.044Z,100016.03
2023-05-13T06:19:58.530Z,100009.81
2023-05-13T06:22:28.974Z,100012.44
2023-05-13T06:24:59.474Z,100020.19
2023-05-13T06:27:29.917Z,100010.47
2023-05-13T06:30:00.430Z,100007.84
2023-05-13T06:32:30.854Z,100006.91
2023-05-13T06:35:01.175Z,100005.94
2023-05-13T06:37:31.948Z,99995.41
2023-05-13T06:40:02.874Z,99993.47
2023-05-13T06:42:35.099Z,99993.47
2023-05-13T06:45:14.301Z,99993.47
2023-05-13T06:47:45.427Z,99996.91
2023-05-13T06:50:15.870Z,99990.69
2023-05-13T06:52:46.355Z,99992.38
2023-05-13T06:55:18.163Z,99992.38
2023-05-13T06:57:48.734Z,99991.38
2023-05-13T07:00:19.872Z,99990.56
2023-05-13T07:02:50.421Z,99992.22
2023-05-13T07:05:20.845Z,99988.63
2023-05-13T07:07:55.062Z,99983.34
2023-05-13T07:10:25.682Z,99983.34
2023-05-13T07:12:56.006Z,99989.44
2023-05-13T07:15:26.699Z,99985.00
2023-05-13T07:17:57.631Z,99990.16
2023-05-13T07:20:28.651Z,99990.16
2023-05-13T07:23:17.062Z,99996.25
2023-05-13T07:25:47.628Z,99985.72
2023-05-13T07:28:18.097Z,99996.25
2023-05-13T07:30:48.715Z,99990.00
2023-05-13T07:33:19.196Z,99987.38
2023-05-13T07:35:49.632Z,99986.41
2023-05-13T07:38:20.660Z,99986.28
2023-05-13T07:40:51.326Z,99985.47
2023-05-13T07:43:25.284Z,99987.94
2023-05-13T07:45:55.823Z,99993.22
2023-05-13T07:48:27.267Z,99989.75
2023-05-13T07:50:59.333Z,99994.03
2023-05-13T07:53:29.896Z,99995.69
2023-05-13T07:56:00.292Z,99990.44
2023-05-13T07:58:30.746Z,99994.72
2023-05-13T08:01:01.387Z,99991.25
2023-05-13T08:03:31.982Z,99986.81
2023-05-13T08:06:02.506Z,99986.00
2023-05-13T08:08:32.916Z,99989.34
2023-05-13T08:11:03.335Z,99992.09
2023-05-13T08:13:33.841Z,99988.50
2023-05-13T08:16:05.035Z,99991.13
2023-05-13T08:18:35.856Z,99984.06
2023-05-13T08:21:06.534Z,99987.53
2023-05-13T08:23:45.287Z,99987.53
2023-05-13T08:26:16.575Z,99986.56
2023-05-13T08:28:48.027Z,99981.28
2023-05-13T08:31:18.669Z,99983.91
2023-05-13T08:33:50.135Z,99990.84
2023-05-13T08:36:21.253Z,99980.31
2023-05-13T08:38:51.833Z,99986.41
2023-05-13T08:41:24.264Z,99987.22
2023-05-13T08:43:58.845Z,99981.13
2023-05-13T08:46:38.178Z,99990.72
2023-05-13T08:49:11.059Z,99985.47
2023-05-13T08:51:42.608Z,99994.19
2023-05-13T08:54:13.287Z,99988.91
2023-05-13T08:56:43.664Z,99990.72
2023-05-13T08:59:14.016Z,99991.56
2023-05-13T09:01:45.858Z,99987.94
2023-05-13T09:04:16.515Z,99986.16
2023-05-13T09:06:50.322Z,99981.84
2023-05-13T09:09:21.110Z,99987.94
2023-05-13T09:11:52.061Z,99985.31
2023-05-13T09:14:22.552Z,99992.22
2023-05-13T09:16:53.335Z,99996.53
2023-05-13T09:19:26.848Z,99990.44
2023-05-13T09:21:59.113Z,100000.97
2023-05-13T09:24:29.879Z,100000.13
2023-05-13T09:27:00.310Z,99995.69
2023-05-13T09:29:33.518Z,100001.78
2023-05-13T09:32:09.181Z,99999.16
2023-05-13T09:34:39.646Z,100003.59
2023-05-13T09:37:11.038Z,100007.06
2023-05-13T09:39:43.426Z,100010.53
2023-05-13T09:42:21.628Z,100013.16
2023-05-13T09:44:52.239Z,100008.75
2023-05-13T09:47:22.718Z,100002.63
2023-05-13T09:49:59.540Z,100002.63
2023-05-13T09:52:35.304Z,100009.69
2023-05-13T09:55:06.952Z,100001.78
2023-05-13T09:57:37.758Z,100012.31
2023-05-13T10:00:17.845Z,100017.47
2023-05-13T10:02:55.861Z,100012.31
2023-05-13T10:05:26.974Z,100007.06
2023-05-13T10:07:58.875Z,100013.16
2023-05-13T10:10:32.346Z,100012.22
2023-05-13T10:13:10.822Z,100006.94
2023-05-13T10:15:54.756Z,100005.25
2023-05-13T10:18:26.410Z,100014.00
2023-05-13T10:20:57.680Z,100020.22
2023-05-13T10:23:49.139Z,100014.97
2023-05-13T10:26:19.773Z,100010.53
2023-05-13T10:28:51.166Z,100019.28
2023-05-13T10:31:21.767Z,100028.94
2023-05-13T10:33:55.691Z,100030.63
2023-05-13T10:36:41.070Z,100026.31
2023-05-13T10:39:48.514Z,100028.94
2023-05-13T10:42:39.813Z,100027.28
2023-05-13T10:45:11.653Z,100022.84
2023-05-13T10:48:08.986Z,100029.81
2023-05-13T10:50:43.526Z,100021.03
2023-05-13T10:53:24.454Z,100017.59
2023-05-13T10:56:02.030Z,100011.50
2023-05-13T10:58:39.372Z,100017.59
2023-05-13T11:01:16.277Z,100025.50
2023-05-13T11:03:58.076Z,100031.59
2023-05-13T11:06:39.601Z,100032.56
2023-05-13T11:09:14.396Z,100025.50
2023-05-13T11:12:03.249Z,100031.72
2023-05-13T11:14:51.632Z,100033.38
2023-05-13T11:17:22.330Z,100037.00
2023-05-13T11:19:53.547Z,100049.19
2023-05-13T11:22:29.146Z,100049.31
2023-05-13T11:25:11.041Z,100046.56
2023-05-13T11:27:45.237Z,100054.44
2023-05-13T11:30:28.231Z,100051.81
2023-05-13T11:33:00.581Z,100052.66
2023-05-13T11:35:35.068Z,100057.09
2023-05-13T11:38:07.260Z,100060.53
2023-05-13T11:40:40.380Z,100066.78
2023-05-13T11:43:13.747Z,100069.41
2023-05-13T11:45:43.851Z,100062.34
2023-05-13T11:48:22.369Z,100070.25
2023-05-13T11:50:53.555Z,100067.63
2023-05-13T11:53:24.549Z,100064.97
2023-05-13T11:55:55.018Z,100062.34
2023-05-13T11:58:25.555Z,100081.75
2023-05-13T12:00:57.469Z,100074.81
2023-05-13T12:03:30.417Z,100084.38
2023-05-13T12:06:07.175Z,100081.75
2023-05-13T12:08:37.805Z,100082.59
2023-05-13T12:11:11.668Z,100088.69
2023-05-13T12:13:44.260Z,100087.84
2023-05-13T12:16:14.744Z,100095.75
2023-05-13T12:18:45.208Z,100092.28
2023-05-13T12:21:19.584Z,100096.72
2023-05-13T12:23:50.227Z,100098.53
2023-05-13T12:26:21.663Z,100098.53
2023-05-13T12:29:00.498Z,100103.78
2023-05-13T12:31:30.994Z,100100.31
2023-05-13T12:34:01.387Z,100102.13
2023-05-13T12:36:37.763Z,100099.50
2023-05-13T12:39:13.001Z,100106.44
2023-05-13T12:41:45.314Z,100108.22
2023-05-13T12:44:17.249Z,100102.81
2023-05-13T12:47:02.871Z,100102.97
2023-05-13T12:49:33.272Z,100105.59
2023-05-13T12:52:23.164Z,100105.59
2023-05-13T12:54:53.637Z,100094.22
2023-05-13T12:57:24.452Z,100105.59
2023-05-13T12:59:55.278Z,100099.50
2023-05-13T13:02:25.724Z,100100.44
2023-05-13T13:04:56.227Z,100098.66
2023-05-13T13:07:26.642Z,100099.50
2023-05-13T13:09:57.121Z,100103.06
2023-05-13T13:12:27.719Z,100097.81
2023-05-13T13:14:59.189Z,100102.25
2023-05-13T13:17:29.835Z,100104.88
2023-05-13T13:20:00.249Z,100107.50
2023-05-13T13:22:31.013Z,100104.06
2023-05-13T13:25:01.491Z,100105.72
2023-05-13T13:27:31.913Z,100109.31
2023-05-13T13:30:02.366Z,100114.59
2023-05-13T13:32:33.327Z,100109.47
2023-05-13T13:35:04.977Z,100106.69
2023-05-13T13:37:36.196Z,100105.84
2023-05-13T13:40:09.928Z,100103.22
2023-05-13T13:42:44.540Z,100101.41
2023-05-13T13:45:16.248Z,100100.72
2023-05-13T13:47:46.962Z,100098.94
2023-05-13T13:50:17.453Z,100097.13
2023-05-13T13:52:47.895Z,100095.47
2023-05-13T13:55:18.510Z,100097.13
2023-05-13T13:57:49.139Z,100089.38
2023-05-13T14:00:20.251Z,100089.38
2023-05-13T14:02:50.820Z,100084.22
2023-05-13T14:05:39.523Z,100092.94
2023-05-13T14:08:10.073Z,100089.47
2023-05-13T14:10:40.550Z,100086.03
2023-05-13T14:13:11.173Z,100086.84
2023-05-13T14:15:41.661Z,100086.03
2023-05-13T14:18:12.460Z,100085.19
2023-05-13T14:20:42.922Z,100085.19
2023-05-13T14:23:13.296Z,100091.28
2023-05-13T14:25:43.891Z,100085.19
2023-05-13T14:28:14.863Z,100090.47
2023-05-13T14:30:45.410Z,100083.53
2023-05-13T14:33:15.875Z,100080.91
2023-05-13T14:35:46.391Z,100087.00
2023-05-13T14:38:17.155Z,100087.97
2023-05-13T14:40:47.709Z,100085.47
2023-05-13T14:43:18.242Z,100082.72
2023-05-13T14:45:48.697Z,100081.06
2023-05-13T14:48:19.374Z,100082.84
2023-05-13T14:50:49.785Z,100078.41
2023-05-13T14:53:20.236Z,100075.91
2023-05-13T14:55:51.600Z,100079.34
2023-05-13T14:58:22.192Z,100074.94
2023-05-13T15:00:52.705Z,100080.34
2023-05-13T15:03:23.194Z,100077.69
2023-05-13T15:05:55.866Z,100080.34
2023-05-13T15:08:26.960Z,100077.69
2023-05-13T15:10:57.825Z,100076.88
2023-05-13T15:13:28.803Z,100073.41
2023-05-13T15:15:59.272Z,100076.03
2023-05-13T15:18:29.793Z,100072.59
2023-05-13T15:21:00.332Z,100069.13
2023-05-13T15:23:31.020Z,100076.03
2023-05-13T15:26:01.470Z,100078.81
2023-05-13T15:28:31.852Z,100079.66
2023-05-13T15:31:02.400Z,100084.09
2023-05-13T15:33:34.107Z,100083.25
2023-05-13T15:36:04.878Z,100079.75
2023-05-13T15:38:35.316Z,100078.00
2023-05-13T15:41:05.768Z,100071.88
2023-05-13T15:43:36.202Z,100075.47
2023-05-13T15:46:06.994Z,100066.75
2023-05-13T15:48:38.028Z,100066.75
2023-05-13T15:51:09.040Z,100061.47
2023-05-13T15:53:39.470Z,100066.75
2023-05-13T15:56:10.093Z,100060.66
2023-05-13T15:58:58.743Z,100061.47
2023-05-13T16:01:29.247Z,100058.03
2023-05-13T16:03:59.721Z,100056.38
2023-05-13T16:06:30.291Z,100050.28
2023-05-13T16:09:03.505Z,100046.81
2023-05-13T16:11:33.249Z,100052.06
2023-05-13T16:14:03.632Z,100041.53
2023-05-13T16:16:34.174Z,100041.53
2023-05-13T16:19:07.550Z,100045.94
2023-05-13T16:21:42.080Z,100056.47
2023-05-13T16:24:12.777Z,100053.00
2023-05-13T16:26:43.365Z,100047.75
2023-05-13T16:29:14.200Z,100049.56
2023-05-13T16:31:44.682Z,100044.44
2023-05-13T16:34:15.560Z,100047.91
2023-05-13T16:36:45.913Z,100036.53
2023-05-13T16:39:16.337Z,100032.25
2023-05-13T16:41:46.737Z,100029.63
2023-05-13T16:44:17.092Z,100020.91
2023-05-13T16:46:47.481Z,100027.97
2023-05-13T16:49:17.940Z,100026.28
2023-05-13T16:51:48.390Z,100033.22
2023-05-13T16:54:18.871Z,100038.50
2023-05-13T16:56:51.885Z,100028.06
2023-05-13T16:59:26.895Z,100031.69
2023-05-13T17:01:57.719Z,100030.84
2023-05-13T17:04:29.802Z,100031.69
2023-05-13T17:07:00.208Z,100027.38
2023-05-13T17:09:32.214Z,100030.03
2023-05-13T17:12:02.712Z,100026.56
2023-05-13T17:14:33.163Z,100028.38
2023-05-13T17:17:04.646Z,100027.50
2023-05-13T17:19:35.157Z,100035.41
2023-05-13T17:22:08.412Z,100031.94
2023-05-13T17:24:39.977Z,100039.84
2023-05-13T17:27:10.973Z,100035.41
2023-05-13T17:29:41.507Z,100035.53
2023-05-13T17:32:12.080Z,100034.72
2023-05-13T17:34:42.304Z,100025.03
2023-05-13T17:37:12.909Z,100025.03
2023-05-13T17:39:43.290Z,100024.19
2023-05-13T17:42:13.657Z,100028.63
2023-05-13T17:44:44.182Z,100021.69
2023-05-13T17:47:14.918Z,100027.94
2023-05-13T17:49:45.332Z,100026.13
2023-05-13T17:52:16.088Z,100030.56
2023-05-13T17:54:46.411Z,100027.06
2023-05-13T17:57:17.270Z,100021.00
2023-05-13T17:59:47.708Z,100022.78
2023-05-13T18:02:18.424Z,100030.69
2023-05-13T18:04:49.061Z,100023.75
2023-05-13T18:07:22.565Z,100020.31
2023-05-13T18:09:53.390Z,100008.09
2023-05-13T18:12:23.951Z,100009.91
2023-05-13T18:14:54.614Z,100008.09
2023-05-13T18:17:25.267Z,100003.78
2023-05-13T18:19:55.852Z,100006.41
2023-05-13T18:22:26.318Z,100008.19
2023-05-13T18:24:57.015Z,100000.31
2023-05-13T18:27:27.527Z,99988.97
2023-05-13T18:29:57.903Z,99989.09
2023-05-13T18:32:28.357Z,100003.09
2023-05-13T18:34:58.800Z,100002.25
2023-05-13T18:37:29.229Z,99989.94
2023-05-13T18:40:00.347Z,99995.34
2023-05-13T18:42:31.475Z,99997.13
2023-05-13T18:45:01.948Z,99993.66
2023-05-13T18:47:32.370Z,99998.09
2023-05-13T18:50:02.984Z,99995.59
2023-05-13T18:52:33.384Z,99993.78
2023-05-13T18:55:06.614Z,99991.16
2023-05-13T18:57:37.514Z,99987.69
2023-05-13T19:00:08.914Z,99990.34
2023-05-13T19:02:39.751Z,99989.50
2023-05-13T19:05:10.914Z,99987.84
2023-05-13T19:07:41.392Z,99986.19
2023-05-13T19:10:12.038Z,99989.75
2023-05-13T19:12:42.625Z,99991.44
2023-05-13T19:15:13.263Z,99987.13
2023-05-13T19:17:43.942Z,99994.19
2023-05-13T19:20:32.701Z,99988.94
2023-05-13T19:23:03.084Z,99982.00
2023-05-13T19:25:33.408Z,99991.72
2023-05-13T19:28:06.754Z,99988.25
2023-05-13T19:30:37.463Z,99983.97
2023-05-13T19:33:09.084Z,99984.78
2023-05-13T19:35:39.606Z,99984.06
2023-05-13T19:38:10.078Z,99989.22
2023-05-13T19:40:40.455Z,99996.25
2023-05-13T19:43:11.102Z,99987.69
2023-05-13T19:45:41.421Z,99986.84
2023-05-13T19:48:11.780Z,99986.03
2023-05-13T19:50:43.156Z,99986.03
2023-05-13T19:53:14.085Z,99987.81
2023-05-13T19:55:44.464Z,99980.03
2023-05-13T19:58:15.102Z,99977.41
2023-05-13T20:00:45.615Z,99988.91
2023-05-13T20:03:16.239Z,99987.94
2023-05-13T20:06:04.427Z,99988.91
2023-05-13T20:08:35.251Z,99984.47
2023-05-13T20:11:05.562Z,99988.06
2023-05-13T20:13:36.221Z,99991.69
2023-05-13T20:16:06.880Z,99994.47
2023-05-13T20:18:37.811Z,99993.47
2023-05-13T20:21:08.300Z,99990.03
2023-05-13T20:23:38.824Z,99995.41
2023-05-13T20:26:09.790Z,100001.50
2023-05-13T20:28:40.185Z,99997.19
2023-05-13T20:31:10.937Z,99999.81
2023-05-13T20:33:41.604Z,99996.50
2023-05-13T20:36:12.191Z,99997.34
2023-05-13T20:38:42.773Z,99999.13
2023-05-13T20:41:13.162Z,100004.50
2023-05-13T20:43:43.566Z,100013.25
2023-05-13T20:46:18.197Z,100006.31
2023-05-13T20:48:49.481Z,100013.25
2023-05-13T20:51:20.042Z,100011.56
2023-05-13T20:53:50.493Z,100007.28
2023-05-13T20:56:20.911Z,100003.81
2023-05-13T20:58:51.880Z,100008.25
2023-05-13T21:01:22.254Z,100004.81
2023-05-13T21:03:52.903Z,100007.44
2023-05-13T21:06:23.556Z,100010.06
2023-05-13T21:08:54.262Z,100011.03
2023-05-13T21:11:24.693Z,100009.34
2023-05-13T21:14:13.217Z,100023.34
2023-05-13T21:16:44.102Z,100016.41
2023-05-13T21:19:24.739Z,100019.03
2023-05-13T21:21:55.170Z,100020.84
2023-05-13T21:24:25.512Z,100014.75
2023-05-13T21:26:56.677Z,100020.00
2023-05-13T21:29:27.885Z,100028.88
2023-05-13T21:31:58.873Z,100024.44
2023-05-13T21:34:29.400Z,100030.66
2023-05-13T21:36:59.841Z,100030.66
2023-05-13T21:39:30.259Z,100029.84
2023-05-13T21:42:02.201Z,100029.00
2023-05-13T21:44:32.600Z,100024.69
2023-05-13T21:47:03.047Z,100017.63
2023-05-13T21:49:33.506Z,100026.38
2023-05-13T21:52:04.054Z,100021.22
2023-05-13T21:54:34.621Z,100022.19
2023-05-13T21:57:05.239Z,100022.19
2023-05-13T21:59:35.496Z,100024.81
2023-05-13T22:02:06.170Z,100023.16
2023-05-13T22:04:36.518Z,100029.25
2023-05-13T22:07:07.034Z,100020.69
2023-05-13T22:09:37.636Z,100026.78
2023-05-13T22:12:08.427Z,100026.78
2023-05-13T22:14:38.852Z,100034.66
2023-05-13T22:17:10.518Z,100032.97
2023-05-13T22:19:41.355Z,100032.97
2023-05-13T22:22:11.930Z,100030.34
2023-05-13T22:24:42.336Z,100028.69
2023-05-13T22:27:12.861Z,100024.25
2023-05-13T22:29:43.278Z,100027.84
2023-05-13T22:32:13.976Z,100026.06
2023-05-13T22:34:44.566Z,100033.94
2023-05-13T22:37:14.966Z,100025.22
2023-05-13T22:39:45.272Z,100024.38
2023-05-13T22:42:15.643Z,100024.38
2023-05-13T22:44:46.514Z,100031.44
2023-05-13T22:47:16.996Z,100028.81
2023-05-13T22:49:47.372Z,100025.38
2023-05-13T22:52:17.830Z,100026.19
2023-05-13T22:54:48.101Z,100028.00
2023-05-13T22:57:18.646Z,100022.00
2023-05-13T22:59:49.218Z,100024.53
2023-05-13T23:02:19.612Z,100026.34
2023-05-13T23:04:50.035Z,100023.69
2023-05-13T23:07:20.463Z,100021.19
2023-05-13T23:09:50.887Z,100018.44
2023-05-13T23:12:21.314Z,100023.69
2023-05-13T23:14:51.757Z,100020.22
2023-05-13T23:17:22.276Z,100021.06
2023-05-13T23:19:52.924Z,100018.44
2023-05-13T23:22:23.324Z,100024.63
2023-05-13T23:24:53.872Z,100022.00
2023-05-13T23:27:24.402Z,100029.78
2023-05-13T23:29:55.009Z,100025.47
2023-05-13T23:32:26.269Z,100010.66
2023-05-13T23:34:56.473Z,100026.19
2023-05-13T23:37:27.234Z,100022.00
2023-05-13T23:40:15.967Z,100023.69
2023-05-13T23:42:46.400Z,100023.69
2023-05-13T23:45:17.500Z,100028.81
2023-05-13T23:47:48.276Z,100021.91
2023-05-13T23:50:18.575Z,100022.72
2023-05-13T23:52:52.656Z,100020.94
2023-05-13T23:55:23.214Z,100023.69
2023-05-13T23:57:53.587Z,100022.59
